Time;durP1;ratioP1;P1;durP2;ratioP2;P2;SDS_P1;SDS_P2;PMS_P1;PMS_P2;Temp;Humidity;BMP_temperature;BMP_pressure;BME280_temperature;BME280_humidity;BME280_pressure;Samples;Min_cycle;Max_cycle;Signal;HPM_P1;HPM_P2
2022/06/15 00:00:44;;;;;;;13.45;3.08;;;;;;;20.79;50.98;98649.56;5092851;28;20066;-67
2022/06/15 00:03:12;;;;;;;7.53;3.10;;;;;;;20.63;50.97;98664.69;5092844;28;20562;-67
2022/06/15 00:05:39;;;;;;;7.60;2.75;;;;;;;20.62;50.84;98667.63;5109367;28;20043;-67
2022/06/15 00:08:05;;;;;;;9.65;3.65;;;;;;;20.77;50.70;98667.88;5092390;28;20062;-67
2022/06/15 00:10:32;;;;;;;7.50;3.78;;;;;;;20.71;51.59;98668.84;5093057;28;20039;-67
2022/06/15 00:12:58;;;;;;;11.48;3.83;;;;;;;20.43;51.52;98668.94;5109797;28;20047;-67
2022/06/15 00:15:24;;;;;;;10.70;3.38;;;;;;;20.38;51.54;98679.63;5092617;28;20035;-68
2022/06/15 00:17:50;;;;;;;5.25;3.58;;;;;;;20.26;51.65;98677.00;5109601;28;20039;-65
2022/06/15 00:20:16;;;;;;;8.13;3.13;;;;;;;20.20;51.59;98671.75;5098569;28;20067;-65
2022/06/15 00:22:41;;;;;;;7.55;3.10;;;;;;;20.22;51.76;98672.34;5095405;28;20039;-67
2022/06/15 00:25:09;;;;;;;6.72;3.80;;;;;;;20.38;51.70;98669.66;5094975;28;20495;-67
2022/06/15 00:27:34;;;;;;;10.43;3.78;;;;;;;20.25;51.47;98669.16;5077833;28;20082;-66
2022/06/15 00:30:03;;;;;;;7.82;3.63;;;;;;;20.19;51.70;98678.22;5077383;28;20075;-67
2022/06/15 00:32:29;;;;;;;5.05;3.65;;;;;;;20.18;51.32;98663.09;5093540;28;20130;-66
2022/06/15 00:34:54;;;;;;;7.35;3.70;;;;;;;20.07;51.48;98676.38;5094930;28;20143;-65
2022/06/15 00:37:20;;;;;;;7.22;3.80;;;;;;;19.91;51.68;98670.94;5078661;28;20043;-67
2022/06/15 00:39:46;;;;;;;7.15;3.17;;;;;;;20.16;51.24;98678.72;5078541;28;20048;-67
2022/06/15 00:42:14;;;;;;;8.15;3.90;;;;;;;20.43;50.82;98688.63;5113372;28;20063;-67
2022/06/15 00:44:42;;;;;;;6.85;2.97;;;;;;;20.35;50.55;98690.91;5078797;28;20477;-67
2022/06/15 00:47:46;;;;;;;12.50;3.20;;;;;;;20.62;49.70;98683.81;5095011;28;20580;-66
2022/06/15 00:50:26;;;;;;;7.78;2.95;;;;;;;20.54;49.22;98668.03;5075231;28;20047;-68
2022/06/15 00:53:01;;;;;;;4.20;2.60;;;;;;;20.13;50.05;98687.25;5095180;28;20129;-68
2022/06/15 00:55:31;;;;;;;6.53;2.53;;;;;;;20.22;49.54;98675.84;5062825;28;20039;-68
2022/06/15 00:58:01;;;;;;;4.50;2.50;;;;;;;20.22;49.53;98693.91;5061983;28;20051;-69
2022/06/15 01:00:27;;;;;;;8.57;2.42;;;;;;;19.97;49.87;98689.63;5095738;28;20039;-68
2022/06/15 01:02:53;;;;;;;6.50;2.50;;;;;;;19.76;49.91;98686.78;5078489;28;20130;-67
2022/06/15 01:05:45;;;;;;;5.28;2.65;;;;;;;20.10;49.90;98683.97;5095002;28;20142;-67
2022/06/15 01:08:17;;;;;;;8.05;2.20;;;;;;;19.97;49.90;98691.53;5021129;28;20058;-67
2022/06/15 01:11:17;;;;;;;3.75;2.40;;;;;;;19.88;50.28;98693.78;5044893;28;20133;-67
2022/06/15 01:13:43;;;;;;;5.27;2.60;;;;;;;19.69;50.36;98692.34;5061506;28;20112;-67
2022/06/15 01:16:09;;;;;;;8.68;2.70;;;;;;;19.74;50.12;98688.94;5077661;28;20483;-67
2022/06/15 01:18:41;;;;;;;4.72;2.70;;;;;;;19.90;50.03;98696.22;5077485;28;20147;-66
2022/06/15 01:21:17;;;;;;;9.57;3.17;;;;;;;19.91;50.05;98695.19;5094701;28;20054;-67
2022/06/15 01:23:52;;;;;;;4.65;2.75;;;;;;;19.71;50.18;98684.81;5095214;28;20047;-66
2022/06/15 01:26:41;;;;;;;6.35;2.92;;;;;;;19.99;49.75;98692.91;5078789;28;20043;-66
2022/06/15 01:29:25;;;;;;;9.43;3.00;;;;;;;19.61;50.19;98692.72;5077234;28;20528;-66
2022/06/15 01:32:00;;;;;;;7.95;2.83;;;;;;;19.91;49.75;98697.88;5074424;28;20052;-66
2022/06/15 01:34:37;;;;;;;6.65;2.72;;;;;;;19.95;49.62;98701.72;5110141;28;20538;-66
2022/06/15 01:37:13;;;;;;;12.80;2.97;;;;;;;19.89;49.46;98690.03;5075706;28;20110;-67
2022/06/15 01:39:48;;;;;;;5.82;2.80;;;;;;;19.41;49.94;98662.66;5092604;28;20491;-66
2022/06/15 01:42:28;;;;;;;5.13;2.95;;;;;;;20.00;48.99;98691.06;5075454;28;20514;-67
2022/06/15 01:44:57;;;;;;;12.67;3.47;;;;;;;19.80;49.34;98691.47;5058692;28;20039;-67
2022/06/15 01:47:25;;;;;;;6.90;2.53;;;;;;;19.76;49.31;98684.91;5060414;28;20825;-65
2022/06/15 01:50:09;;;;;;;8.50;2.65;;;;;;;19.60;49.20;98687.56;5077780;28;20048;-67
2022/06/15 01:52:43;;;;;;;3.85;2.63;;;;;;;19.93;48.75;98687.66;5094028;28;20474;-66
2022/06/15 01:55:21;;;;;;;7.88;2.35;;;;;;;19.89;48.75;98681.13;5077858;28;20058;-66
2022/06/15 01:57:50;;;;;;;6.30;2.72;;;;;;;19.78;48.93;98684.69;5044441;28;20047;-67
2022/06/15 02:00:20;;;;;;;5.25;2.95;;;;;;;19.69;48.64;98680.75;5077367;28;20063;-66
2022/06/15 02:03:00;;;;;;;6.13;2.80;;;;;;;19.79;48.92;98691.69;5077362;28;20043;-66
2022/06/15 02:05:32;;;;;;;11.23;2.88;;;;;;;19.82;49.05;98691.22;5094509;28;20133;-66
2022/06/15 02:08:09;;;;;;;5.25;2.60;;;;;;;19.73;49.36;98688.09;5077112;28;20105;-66
2022/06/15 02:10:40;;;;;;;6.65;2.90;;;;;;;19.68;49.22;98668.34;5076761;28;20096;-67
2022/06/15 02:13:16;;;;;;;8.85;3.30;;;;;;;19.74;49.38;98699.72;5076643;28;20082;-67
2022/06/15 02:16:05;;;;;;;5.80;2.90;;;;;;;19.62;49.56;98696.22;5056425;28;20082;-66
2022/06/15 02:18:32;;;;;;;5.80;3.13;;;;;;;19.63;49.27;98703.25;5077165;28;20044;-66
2022/06/15 02:21:01;;;;;;;5.63;2.80;;;;;;;19.62;49.33;98697.03;5093979;28;20051;-67
2022/06/15 02:23:31;;;;;;;4.88;3.42;;;;;;;19.55;49.25;98699.06;5076816;28;20043;-67
2022/06/15 02:25:57;;;;;;;10.10;3.60;;;;;;;19.45;49.49;98693.44;5076537;28;20043;-67
2022/06/15 02:28:27;;;;;;;8.13;3.35;;;;;;;19.59;49.05;98692.13;5026739;28;20534;-67
2022/06/15 02:30:55;;;;;;;5.35;2.92;;;;;;;19.50;49.29;98688.16;5076648;28;20071;-67
2022/06/15 02:33:33;;;;;;;5.03;2.60;;;;;;;19.69;48.49;98672.66;5076265;28;20407;-66
2022/06/15 02:36:04;;;;;;;7.32;2.40;;;;;;;19.60;48.97;98699.13;5077195;28;20149;-67
2022/06/15 02:38:32;;;;;;;4.40;2.08;;;;;;;19.36;48.51;98673.31;5093570;28;20051;-67
2022/06/15 02:40:58;;;;;;;7.88;2.88;;;;;;;19.51;48.63;98692.47;5093377;28;20533;-67
2022/06/15 02:43:27;;;;;;;6.05;1.90;;;;;;;19.61;48.26;98694.56;5076217;28;20043;-67
2022/06/15 02:45:55;;;;;;;7.72;3.30;;;;;;;19.48;48.47;98687.56;5043110;28;20048;-67
2022/06/15 02:48:26;;;;;;;5.03;2.20;;;;;;;19.62;48.23;98697.03;5092980;28;20047;-67
2022/06/15 02:51:14;;;;;;;2.75;1.80;;;;;;;19.72;47.64;98696.41;5059597;28;20523;-67
2022/06/15 02:53:47;;;;;;;5.82;1.98;;;;;;;19.59;47.93;98699.38;5076572;28;20036;-66
2022/06/15 02:56:16;;;;;;;8.68;1.92;;;;;;;19.79;47.88;98716.78;5060228;28;20051;-67
2022/06/15 02:58:45;;;;;;;2.45;1.83;;;;;;;19.80;46.95;98702.25;5076303;28;20051;-67
2022/06/15 03:01:12;;;;;;;4.93;1.80;;;;;;;19.55;46.84;98700.91;5076217;28;20080;-67
2022/06/15 03:03:40;;;;;;;1.98;1.50;;;;;;;19.61;47.02;98727.72;5075863;28;20043;-67
2022/06/15 03:06:27;;;;;;;6.55;2.42;;;;;;;19.51;47.62;98711.34;5063719;28;20466;-67
2022/06/15 03:08:56;;;;;;;5.45;1.70;;;;;;;19.68;46.96;98701.47;5076590;28;20575;-68
2022/06/15 03:11:27;;;;;;;5.50;1.80;;;;;;;19.58;46.95;98706.66;5076619;28;20100;-67
2022/06/15 03:13:58;;;;;;;;;;;;;;;20.19;46.39;98697.88;5092582;28;20487;-67
2022/06/15 03:16:28;;;;;;;2.42;1.70;;;;;;;19.68;46.62;98716.81;5074326;28;19920;-67
2022/06/15 03:18:54;;;;;;;7.82;1.70;;;;;;;19.73;47.16;98700.75;5090233;28;20050;-68
2022/06/15 03:21:20;;;;;;;4.30;1.48;;;;;;;19.72;46.75;98691.84;5090204;28;20047;-67
2022/06/15 03:23:46;;;;;;;3.33;1.77;;;;;;;19.95;46.39;98688.25;5090001;28;20036;-69
2022/06/15 03:26:14;;;;;;;4.40;1.60;;;;;;;20.01;45.95;98701.59;5090683;28;20044;-67
2022/06/15 03:28:41;;;;;;;5.40;1.85;;;;;;;20.02;46.00;98710.47;5090144;28;20529;-67
2022/06/15 03:31:11;;;;;;;3.35;1.67;;;;;;;20.04;46.02;98711.91;5091146;28;20048;-68
2022/06/15 03:33:38;;;;;;;4.85;1.85;;;;;;;19.87;46.19;98711.03;5090326;28;20101;-68
2022/06/15 03:36:08;;;;;;;2.72;1.45;;;;;;;19.96;45.46;98711.44;5090184;28;20537;-67
2022/06/15 03:38:35;;;;;;;6.40;1.67;;;;;;;19.99;45.19;98735.22;5057650;28;20058;-68
2022/06/15 03:41:15;;;;;;;10.70;1.63;;;;;;;19.91;45.43;98706.78;5090948;28;20039;-68
2022/06/15 03:43:41;;;;;;;3.03;1.42;;;;;;;20.01;45.55;98709.69;5074987;28;20123;-68
2022/06/15 03:46:06;;;;;;;10.10;1.63;;;;;;;19.90;45.60;98721.31;5091873;28;20138;-70
2022/06/15 03:48:36;;;;;;;1.98;1.30;;;;;;;19.95;45.29;98701.72;5091884;28;20079;-70
2022/06/15 03:51:03;;;;;;;4.75;1.70;;;;;;;20.16;44.80;98724.53;5109512;28;20043;-68
2022/06/15 03:53:34;;;;;;;2.30;1.30;;;;;;;20.06;44.40;98690.88;5092273;28;20046;-68
2022/06/15 03:56:00;;;;;;;9.82;1.70;;;;;;;20.51;43.70;98714.38;5095037;28;20503;-67
2022/06/15 03:58:26;;;;;;;2.00;1.40;;;;;;;20.33;44.14;98714.59;5096077;28;20050;-68
2022/06/15 04:00:53;;;;;;;3.70;1.02;;;;;;;20.04;43.39;98733.47;5079125;28;20062;-67
2022/06/15 04:03:23;;;;;;;6.25;1.33;;;;;;;19.58;44.92;98717.44;5078971;28;20542;-68
2022/06/15 04:05:56;;;;;;;5.70;1.40;;;;;;;20.07;45.18;98732.16;5095396;28;20043;-67
2022/06/15 04:08:35;;;;;;;2.70;1.38;;;;;;;20.04;44.75;98701.09;5046512;28;20840;-67
2022/06/15 04:11:58;;;;;;;4.32;1.50;;;;;;;20.45;44.11;98724.25;5095565;28;20078;-67
2022/06/15 04:14:00;;;;;;;7.03;1.35;;;;;;;20.52;43.83;98716.00;5064928;28;20067;-66
2022/06/15 04:16:28;;;;;;;8.23;1.30;;;;;;;20.44;43.56;98725.31;5095477;28;20043;-67
2022/06/15 04:18:55;;;;;;;4.63;1.33;;;;;;;20.42;44.25;98715.84;5078481;28;20039;-68
2022/06/15 04:21:21;;;;;;;3.33;1.20;;;;;;;20.28;43.26;98701.81;5095217;28;20380;-67
2022/06/15 04:23:50;;;;;;;4.75;1.33;;;;;;;20.53;43.45;98717.63;5094965;28;20522;-67
2022/06/15 04:26:16;;;;;;;5.13;1.25;;;;;;;20.78;42.98;98734.25;5095015;28;20144;-67
2022/06/15 04:28:46;;;;;;;3.33;1.20;;;;;;;20.61;42.88;98726.16;5077929;28;20050;-67
2022/06/15 04:31:18;;;;;;;2.45;1.23;;;;;;;20.83;42.77;98729.78;5078081;28;20197;-66
2022/06/15 04:33:44;;;;;;;5.50;1.17;;;;;;;20.83;42.49;98723.56;5061068;28;20031;-66
2022/06/15 04:36:13;;;;;;;5.95;1.25;;;;;;;21.11;42.13;98734.28;5094744;28;20499;-67
2022/06/15 04:38:41;;;;;;;5.63;1.30;;;;;;;20.97;42.23;98731.09;5061776;28;20043;-67
2022/06/15 04:41:09;;;;;;;13.80;1.33;;;;;;;20.43;41.71;98714.78;5078321;28;20048;-66
2022/06/15 04:43:34;;;;;;;4.13;1.25;;;;;;;20.70;42.24;98715.75;5061288;28;20043;-66
2022/06/15 04:46:01;;;;;;;3.63;1.30;;;;;;;20.63;41.55;98752.91;5061236;28;20052;-67
2022/06/15 04:48:27;;;;;;;3.70;1.10;;;;;;;20.79;41.77;98725.91;5077403;28;20043;-68
2022/06/15 04:50:56;;;;;;;3.58;1.15;;;;;;;21.14;41.63;98726.50;5070902;28;20464;-67
2022/06/15 04:53:27;;;;;;;2.95;1.02;;;;;;;21.15;41.36;98721.91;5076546;28;20537;-68
2022/06/15 04:55:54;;;;;;;2.83;1.00;;;;;;;21.06;41.38;98726.09;5060118;28;20059;-69
2022/06/15 04:58:20;;;;;;;3.85;1.10;;;;;;;21.15;40.60;98706.53;5076464;28;20057;-69
2022/06/15 05:00:54;;;;;;;6.75;1.10;;;;;;;21.06;40.69;98702.63;5077515;28;20128;-70
2022/06/15 05:03:20;;;;;;;4.28;1.10;;;;;;;21.66;39.55;98714.25;5076275;28;20067;-69
2022/06/15 05:05:46;;;;;;;2.15;1.23;;;;;;;21.46;39.80;98710.47;5035098;28;20047;-68
2022/06/15 05:08:16;;;;;;;3.97;1.08;;;;;;;21.60;39.39;98709.84;5082589;28;20223;-68
2022/06/15 05:10:45;;;;;;;4.18;1.02;;;;;;;21.85;39.34;98722.09;5063368;28;20137;-68
2022/06/15 05:13:11;;;;;;;2.35;0.90;;;;;;;21.97;39.24;98707.38;5046713;28;20089;-68
2022/06/15 05:15:42;;;;;;;4.95;1.08;;;;;;;22.42;38.09;98715.94;5063498;28;20521;-71
2022/06/15 05:18:09;;;;;;;1.90;1.05;;;;;;;22.16;38.79;98700.53;5070169;28;20052;-70
2022/06/15 05:20:40;;;;;;;3.00;1.00;;;;;;;21.76;38.36;98677.66;5037686;28;20059;-71
2022/06/15 05:23:12;;;;;;;2.50;1.05;;;;;;;22.01;38.37;98711.19;5073326;28;20032;-69
2022/06/15 05:26:00;;;;;;;3.55;0.90;;;;;;;21.70;38.43;98701.06;5059045;28;20040;-68
2022/06/15 05:28:28;;;;;;;4.57;1.00;;;;;;;21.24;38.66;98706.94;5047185;28;20045;-69
2022/06/15 05:31:09;;;;;;;11.20;1.00;;;;;;;21.35;39.47;98723.03;5069624;28;20048;-72
2022/06/15 05:33:40;;;;;;;5.18;0.85;;;;;;;20.98;40.45;98684.16;5064760;28;20500;-70
2022/06/15 05:36:12;;;;;;;2.22;1.00;;;;;;;21.48;39.81;98705.66;5062817;28;20050;-70
2022/06/15 05:38:39;;;;;;;6.78;1.67;;;;;;;21.66;39.50;98708.03;5044692;28;20131;-70
2022/06/15 05:41:07;;;;;;;2.65;1.13;;;;;;;21.84;39.83;98712.31;5049028;28;20040;-69
2022/06/15 05:44:25;;;;;;;5.15;0.90;;;;;;;22.35;38.65;98718.03;5070277;28;20042;-71
2022/06/15 05:46:30;;;;;;;3.42;0.90;;;;;;;21.45;37.95;98719.63;5083243;28;20048;-71
2022/06/15 05:49:07;;;;;;;5.07;1.00;;;;;;;21.48;38.88;98711.84;5073212;28;20048;-68
2022/06/15 05:51:33;;;;;;;1.20;0.80;;;;;;;21.56;38.06;98716.00;5072288;28;20441;-69
2022/06/15 05:53:59;;;;;;;3.08;1.15;;;;;;;20.86;38.83;98710.41;5038770;28;20059;-69
2022/06/15 05:56:27;;;;;;;4.25;0.93;;;;;;;21.50;38.35;98717.00;5055278;28;20051;-71
2022/06/15 05:58:55;;;;;;;1.88;0.90;;;;;;;21.74;37.94;98707.59;5072031;28;20040;-69
2022/06/15 06:01:28;;;;;;;2.83;0.80;;;;;;;21.35;38.21;98709.53;5038758;28;20569;-69
2022/06/15 06:03:54;;;;;;;2.65;0.80;;;;;;;21.84;37.89;98702.34;5053858;28;20047;-70
2022/06/15 06:06:21;;;;;;;2.65;1.65;;;;;;;21.68;37.84;98697.78;5055676;28;20040;-72
2022/06/15 06:08:46;;;;;;;4.55;0.80;;;;;;;22.06;37.58;98727.47;5071488;28;20082;-70
2022/06/15 06:11:13;;;;;;;2.17;0.80;;;;;;;22.12;36.72;98750.81;5039082;28;20503;-77
2022/06/15 06:13:38;;;;;;;0.85;0.70;;;;;;;20.92;38.21;98712.09;5022571;28;20142;-70
2022/06/15 06:16:04;;;;;;;7.68;0.80;;;;;;;21.19;38.11;98750.06;5038797;28;20131;-73
2022/06/15 06:18:32;;;;;;;6.22;0.70;;;;;;;20.66;38.52;98728.13;5071366;28;20040;-70
2022/06/15 06:20:57;;;;;;;3.60;0.80;;;;;;;21.13;38.25;98732.97;5055081;28;20101;-72
2022/06/15 06:23:23;;;;;;;0.80;0.57;;;;;;;21.83;36.66;98735.84;5021740;28;20058;-72
2022/06/15 06:25:51;;;;;;;2.15;0.80;;;;;;;22.27;36.57;98737.44;5021805;28;20549;-73
2022/06/15 06:28:29;;;;;;;2.22;0.70;;;;;;;22.15;35.71;98725.13;5089561;28;20161;-75
2022/06/15 06:30:57;;;;;;;5.20;0.80;;;;;;;21.69;36.68;98724.56;5021960;28;20046;-70
2022/06/15 06:33:25;;;;;;;2.33;0.82;;;;;;;22.19;36.03;98708.13;5072342;28;20035;-71
2022/06/15 06:35:51;;;;;;;2.40;0.75;;;;;;;22.11;35.49;98726.72;5038584;28;20044;-73
2022/06/15 06:38:17;;;;;;;4.45;0.60;;;;;;;22.08;35.03;98762.38;5038379;28;20062;-74
2022/06/15 06:40:43;;;;;;;4.85;0.60;;;;;;;22.42;35.68;98726.75;5071875;28;20043;-74
2022/06/15 06:43:08;;;;;;;2.30;0.60;;;;;;;21.65;35.64;98717.19;5038425;28;20606;-75
2022/06/15 06:45:34;;;;;;;2.75;0.70;;;;;;;21.90;35.69;98739.19;5055109;28;20040;-74
2022/06/15 06:48:00;;;;;;;4.45;0.80;;;;;;;22.00;35.72;98724.97;5054537;28;20153;-73
2022/06/15 06:50:27;;;;;;;1.63;0.90;;;;;;;22.84;35.22;98730.44;5022423;28;20048;-75
2022/06/15 06:52:53;;;;;;;1.55;0.70;;;;;;;22.82;34.65;98726.34;5054023;28;20784;-74
2022/06/15 06:55:24;;;;;;;6.28;0.75;;;;;;;21.80;36.03;98700.41;5037529;28;20071;-75
2022/06/15 06:58:20;;;;;;;3.42;0.70;;;;;;;22.98;35.37;98737.06;5040121;28;20050;-75
2022/06/15 07:01:22;;;;;;;2.38;0.68;;;;;;;22.80;33.24;98742.03;5083118;28;20181;-72
2022/06/15 07:03:48;;;;;;;6.43;0.60;;;;;;;22.95;33.67;98691.53;5033983;28;20471;-74
2022/06/15 07:06:14;;;;;;;4.18;0.77;;;;;;;22.91;34.09;98720.19;5053285;28;20051;-74
2022/06/15 07:08:40;;;;;;;3.78;0.60;;;;;;;23.00;33.48;98739.50;5073985;28;20146;-74
2022/06/15 07:11:16;;;;;;;3.60;0.70;;;;;;;22.90;33.05;98748.34;5037175;28;20039;-72
2022/06/15 07:13:46;;;;;;;4.25;0.50;;;;;;;23.07;33.65;98721.94;5065198;28;20076;-70
2022/06/15 07:16:15;;;;;;;2.90;0.60;;;;;;;23.22;34.12;98729.34;5074891;28;20044;-73
2022/06/15 07:18:44;;;;;;;0.52;0.52;;;;;;;23.25;33.53;98720.72;5047779;28;20047;-74
2022/06/15 07:21:19;;;;;;;2.45;0.95;;;;;;;23.12;33.76;98742.84;5054843;28;20119;-74
2022/06/15 07:23:49;;;;;;;1.38;0.75;;;;;;;23.00;33.67;98726.75;5048453;28;20527;-75
2022/06/15 07:26:23;;;;;;;3.13;1.83;;;;;;;24.07;32.76;98745.28;5066868;28;20048;-74
2022/06/15 07:28:49;;;;;;;4.25;0.90;;;;;;;24.35;31.77;98742.13;5042219;28;20126;-73
2022/06/15 07:31:23;;;;;;;3.13;1.95;;;;;;;25.24;31.11;98726.16;5075782;28;20046;-75
2022/06/15 07:33:51;;;;;;;1.17;0.82;;;;;;;25.32;30.39;98753.59;5042290;28;20410;-73
2022/06/15 07:36:18;;;;;;;5.78;1.13;;;;;;;25.00;29.35;98760.41;5072204;28;20035;-74
2022/06/15 07:38:46;;;;;;;4.03;0.90;;;;;;;24.18;30.78;98757.81;5068626;28;20063;-79
2022/06/15 07:41:12;;;;;;;3.38;0.80;;;;;;;24.74;30.23;98762.28;5084173;28;20419;-75
2022/06/15 07:43:41;;;;;;;2.40;0.50;;;;;;;24.65;29.59;98770.16;5064693;28;20049;-73
2022/06/15 07:46:08;;;;;;;5.43;0.65;;;;;;;24.50;30.06;98753.00;5050813;28;20035;-74
2022/06/15 07:51:36;;;;;;;2.00;0.60;;;;;;;25.08;29.50;98757.97;5062044;28;20040;-73
2022/06/15 07:54:04;;;;;;;4.50;0.70;;;;;;;25.29;29.21;98761.47;5082163;28;20093;-75
2022/06/15 07:56:31;;;;;;;0.80;0.70;;;;;;;25.56;28.45;98759.28;5074450;28;20154;-74
2022/06/15 07:58:56;;;;;;;1.13;0.80;;;;;;;27.23;26.88;98769.00;5074648;28;20050;-72
2022/06/15 08:01:23;;;;;;;0.85;0.50;;;;;;;27.17;25.80;98735.50;5042139;28;20044;-73
2022/06/15 08:03:49;;;;;;;3.53;0.75;;;;;;;28.34;25.14;98758.50;5053909;28;20075;-73
2022/06/15 08:06:15;;;;;;;2.22;0.70;;;;;;;29.80;23.41;98732.31;5095855;28;20048;-74
2022/06/15 08:08:41;;;;;;;1.70;0.68;;;;;;;30.31;22.34;98745.78;5078484;28;20066;-74
2022/06/15 08:11:07;;;;;;;2.15;0.70;;;;;;;31.35;20.52;98758.13;5078111;28;20070;-76
2022/06/15 08:13:33;;;;;;;2.40;0.60;;;;;;;32.18;20.02;98738.75;5061192;28;20116;-74
2022/06/15 08:15:59;;;;;;;3.00;0.50;;;;;;;31.92;20.30;98768.09;5078271;28;20134;-74
2022/06/15 08:18:28;;;;;;;0.80;0.50;;;;;;;32.20;19.29;98747.50;5095278;28;20031;-74
2022/06/15 08:20:57;;;;;;;2.05;0.75;;;;;;;31.96;20.21;98762.78;5089692;28;20395;-73
2022/06/15 08:23:26;;;;;;;0.68;0.50;;;;;;;31.97;19.30;98758.91;5041695;28;20039;-75
2022/06/15 08:25:57;;;;;;;1.40;0.50;;;;;;;31.43;20.07;98749.13;5074996;28;20054;-73
2022/06/15 08:28:26;;;;;;;2.20;0.60;;;;;;;29.93;22.36;98755.31;5074675;28;20039;-73
2022/06/15 08:30:53;;;;;;;1.92;0.40;;;;;;;27.84;24.72;98775.50;5058122;28;20396;-72
2022/06/15 08:33:19;;;;;;;2.65;0.60;;;;;;;26.50;26.01;98768.16;5074155;28;20143;-73
2022/06/15 08:35:46;;;;;;;1.90;0.70;;;;;;;26.48;26.54;98805.75;5057583;28;20123;-77
2022/06/15 08:38:15;;;;;;;2.30;0.55;;;;;;;26.07;27.55;98768.94;5058331;28;20475;-72
2022/06/15 08:40:51;;;;;;;2.50;0.43;;;;;;;26.05;27.59;98771.94;5057272;28;20050;-73
2022/06/15 08:43:39;;;;;;;3.08;0.70;;;;;;;25.36;28.78;98786.50;5058020;28;20051;-71
2022/06/15 08:46:45;;;;;;;6.70;0.70;;;;;;;25.40;29.13;98787.59;5057950;28;20197;-74
2022/06/15 08:49:37;;;;;;;16.10;0.93;;;;;;;25.73;28.41;98768.75;5036854;28;20495;-72
2022/06/15 08:52:46;;;;;;;2.17;0.60;;;;;;;26.15;27.60;98780.06;5058234;28;20044;-72
2022/06/15 08:55:27;;;;;;;2.33;0.68;;;;;;;27.91;25.50;98789.63;4977640;28;20496;-74
2022/06/15 08:57:58;;;;;;;4.20;1.27;;;;;;;29.81;22.96;98793.34;5054754;28;20046;-73
2022/06/15 09:00:31;;;;;;;3.72;0.80;;;;;;;31.20;21.05;98780.41;5056687;28;20495;-73
2022/06/15 09:03:21;;;;;;;1.17;0.50;;;;;;;29.52;21.77;98780.72;5073274;28;20105;-76
2022/06/15 09:06:10;;;;;;;0.60;0.57;;;;;;;28.39;23.51;98783.03;5057037;28;20044;-73
2022/06/15 09:09:05;;;;;;;3.65;0.60;;;;;;;28.22;24.30;98776.41;5073300;28;20052;-73
2022/06/15 09:11:43;;;;;;;2.70;0.50;;;;;;;27.81;25.04;98776.09;5055228;28;20044;-73
2022/06/15 09:14:17;;;;;;;1.90;0.60;;;;;;;26.73;26.27;98783.03;5072679;28;20066;-74
2022/06/15 09:17:05;;;;;;;2.47;0.60;;;;;;;26.23;27.51;98784.91;5091534;28;20040;-76
2022/06/15 09:19:41;;;;;;;3.08;0.70;;;;;;;26.04;28.18;98769.50;5056285;28;20051;-72
2022/06/15 09:22:10;;;;;;;3.78;0.75;;;;;;;26.02;27.90;98756.16;5072094;28;20036;-72
2022/06/15 09:24:47;;;;;;;2.20;1.15;;;;;;;27.22;26.24;98806.38;5057719;28;20043;-74
2022/06/15 09:27:31;;;;;;;2.40;1.00;;;;;;;30.58;22.51;98797.81;5073917;28;20051;-73
2022/06/15 09:30:05;;;;;;;5.15;0.88;;;;;;;32.36;19.64;98800.13;5056090;28;20097;-76
2022/06/15 09:32:35;;;;;;;1.65;0.85;;;;;;;34.04;18.07;98796.75;5038208;28;20036;-75
2022/06/15 09:35:05;;;;;;;3.50;0.90;;;;;;;35.44;16.55;98804.22;5056114;28;20097;-72
2022/06/15 09:37:34;;;;;;;3.85;0.70;;;;;;;34.50;17.19;98806.94;5056019;28;20075;-74
2022/06/15 09:40:04;;;;;;;5.10;0.80;;;;;;;35.78;16.01;98799.50;5072534;28;20101;-75
2022/06/15 09:42:44;;;;;;;3.30;0.57;;;;;;;31.68;18.87;98786.06;5053919;28;20494;-75
2022/06/15 09:45:18;;;;;;;2.20;0.70;;;;;;;30.68;20.22;98783.84;5037543;28;20103;-75
2022/06/15 09:48:02;;;;;;;2.83;0.63;;;;;;;30.54;21.42;98794.84;5054088;28;20076;-76
2022/06/15 09:50:36;;;;;;;2.92;0.60;;;;;;;29.24;22.93;98806.41;5069765;28;20040;-75
2022/06/15 09:53:04;;;;;;;3.80;0.70;;;;;;;28.80;23.23;98784.09;5068751;28;20044;-76
2022/06/15 09:55:43;;;;;;;3.05;0.60;;;;;;;27.12;25.33;98781.09;5063921;28;20360;-76
2022/06/15 09:58:14;;;;;;;1.33;0.60;;;;;;;27.19;25.57;98796.03;5054041;28;20051;-74
2022/06/15 10:00:44;;;;;;;2.70;0.70;;;;;;;27.27;25.81;98820.00;5090933;28;20047;-73
2022/06/15 10:03:34;;;;;;;1.90;0.70;;;;;;;27.13;26.44;98818.16;5058144;28;20061;-73
2022/06/15 10:06:06;;;;;;;;;;;;;;;27.34;25.95;98819.66;5047698;28;20216;-74
2022/06/15 10:08:32;;;;;;;2.03;0.80;;;;;;;28.23;24.59;98817.09;5054990;28;19919;-75
2022/06/15 10:11:00;;;;;;;3.80;0.60;;;;;;;28.09;24.90;98804.44;5055592;28;20096;-73
2022/06/15 10:13:37;;;;;;;2.97;0.70;;;;;;;27.27;25.62;98833.63;5053735;28;20196;-73
2022/06/15 10:16:14;;;;;;;4.75;1.00;;;;;;;28.07;25.22;98774.72;5038955;28;20040;-75
2022/06/15 10:18:52;;;;;;;2.92;1.00;;;;;;;30.20;22.79;98851.22;5090578;28;20051;-79
2022/06/15 10:21:28;;;;;;;0.75;0.50;;;;;;;29.91;22.28;98809.59;5039260;28;20048;-73
2022/06/15 10:23:59;;;;;;;3.13;0.90;;;;;;;30.09;22.02;98795.78;5055642;28;20442;-73
2022/06/15 10:26:26;;;;;;;;;;;;;;;31.71;21.13;98816.44;5056832;28;20043;-76
2022/06/15 10:28:54;;;;;;;4.25;0.90;;;;;;;30.98;20.89;98838.03;5059727;28;20391;-75
2022/06/15 10:31:32;;;;;;;1.45;0.70;;;;;;;31.52;21.49;98829.59;5039257;28;20044;-78
2022/06/15 10:33:58;;;;;;;4.95;1.55;;;;;;;29.73;21.94;98807.75;5070935;28;20488;-76
2022/06/15 10:36:33;;;;;;;6.85;1.40;;;;;;;30.54;22.06;98832.41;5071942;28;20042;-74
2022/06/15 10:39:06;;;;;;;2.90;1.00;;;;;;;31.76;20.30;98823.75;5089879;28;20044;-75
2022/06/15 10:41:49;;;;;;;1.20;0.95;;;;;;;29.90;22.04;98824.38;5071383;28;20447;-75
2022/06/15 10:44:18;;;;;;;3.95;0.90;;;;;;;29.68;22.63;98825.06;5055034;28;20135;-78
2022/06/15 10:47:01;;;;;;;4.45;0.80;;;;;;;29.19;22.74;98776.38;5056541;28;20055;-78
2022/06/15 10:49:36;;;;;;;1.45;0.68;;;;;;;28.94;23.58;98816.94;5072742;28;20040;-74
2022/06/15 10:52:21;;;;;;;1.27;0.65;;;;;;;27.95;24.53;98816.06;5071332;28;20480;-74
2022/06/15 11:03:21;;;;;;;3.50;0.90;;;;;;;27.99;24.61;98849.88;5089436;28;20430;-73
2022/06/15 11:05:50;;;;;;;1.95;0.60;;;;;;;27.51;25.51;98855.50;5054625;28;20056;-74
2022/06/15 11:08:26;;;;;;;4.38;0.52;;;;;;;27.75;25.70;98829.09;5054500;28;20512;-77
2022/06/15 11:11:09;;;;;;;3.05;0.70;;;;;;;27.38;25.90;98867.06;5053929;28;20044;-73
2022/06/15 11:13:37;;;;;;;1.95;0.82;;;;;;;26.39;26.77;98838.22;5088396;28;20044;-73
2022/06/15 11:19:14;;;;;;;1.60;0.80;;;;;;;26.09;27.87;98851.13;5066526;28;20044;-73
2022/06/15 11:22:08;;;;;;;2.08;0.80;;;;;;;26.17;27.79;98859.53;5048325;28;20528;-77
2022/06/15 11:24:33;;;;;;;2.30;0.93;;;;;;;25.96;27.65;98822.56;5057996;28;20047;-75
2022/06/15 11:27:01;;;;;;;7.60;1.08;;;;;;;26.04;27.71;98837.53;5080232;28;20039;-75
2022/06/15 11:29:49;;;;;;;4.65;0.93;;;;;;;26.71;27.67;98840.50;5054877;28;20135;-73
2022/06/15 11:32:33;;;;;;;3.85;0.85;;;;;;;26.92;27.39;98828.41;5072115;28;20048;-76
2022/06/15 11:35:02;;;;;;;2.22;0.60;;;;;;;26.51;27.24;98807.13;5071644;28;20047;-74
2022/06/15 11:37:47;;;;;;;4.40;0.80;;;;;;;26.45;26.99;98861.59;5055178;28;20093;-75
2022/06/15 11:40:22;;;;;;;4.45;1.00;;;;;;;26.10;27.50;98836.41;5072641;28;20083;-74
2022/06/15 11:42:51;;;;;;;8.48;0.80;;;;;;;25.75;27.32;98821.00;5055111;28;20557;-75
2022/06/15 11:45:20;;;;;;;4.63;0.83;;;;;;;26.08;28.17;98831.25;5054568;28;20510;-72
2022/06/15 11:48:01;;;;;;;4.07;0.73;;;;;;;26.16;27.00;98846.19;5075795;28;20046;-73
2022/06/15 11:50:41;;;;;;;3.85;0.80;;;;;;;26.68;26.96;98857.44;5071671;28;20048;-74
2022/06/15 11:53:13;;;;;;;;;;;;;;;26.86;26.84;98851.34;5109173;28;20036;-73
2022/06/15 11:55:46;;;;;;;4.90;0.90;;;;;;;26.60;27.05;98846.28;5091303;28;19924;-72
2022/06/15 11:58:14;;;;;;;2.75;0.80;;;;;;;27.00;27.30;98854.25;5057736;28;20071;-72
2022/06/15 12:00:49;;;;;;;6.65;0.80;;;;;;;27.24;26.75;98853.25;5109735;28;20600;-72
2022/06/15 12:03:40;;;;;;;2.88;0.80;;;;;;;27.18;27.06;98848.94;5087000;28;20075;-72
2022/06/15 12:06:23;;;;;;;2.47;0.77;;;;;;;26.03;27.49;98842.16;5089079;28;20043;-72
2022/06/15 12:09:15;;;;;;;5.57;0.90;;;;;;;26.06;27.78;98852.47;5050505;28;20059;-72
2022/06/15 12:14:48;;;;;;;8.32;1.10;;;;;;;25.98;28.37;98834.00;5013002;28;20070;-73